createdAt,value
2023-04-28T00:01:53.760Z,2.30
2023-04-28T00:04:21.335Z,2.08
2023-04-28T00:06:49.218Z,1.67
2023-04-28T00:09:16.711Z,1.52
2023-04-28T00:11:47.015Z,2.03
2023-04-28T00:14:14.424Z,4.03
2023-04-28T00:16:41.780Z,1.60
2023-04-28T00:19:09.555Z,1.80
2023-04-28T00:21:36.719Z,1.55
2023-04-28T00:24:04.007Z,1.35
2023-04-28T00:26:31.091Z,1.65
2023-04-28T00:28:58.273Z,1.25
2023-04-28T00:31:25.569Z,1.40
2023-04-28T00:33:52.869Z,2.33
2023-04-28T00:36:20.021Z,1.33
2023-04-28T00:38:47.162Z,1.58
2023-04-28T00:41:15.608Z,1.50
2023-04-28T00:43:50.127Z,1.85
2023-04-28T00:46:27.066Z,1.52
2023-04-28T00:48:54.363Z,1.20
2023-04-28T00:51:21.733Z,1.40
2023-04-28T00:53:49.042Z,0.90
2023-04-28T00:56:16.585Z,1.00
2023-04-28T00:58:43.790Z,0.98
2023-04-28T01:01:11.150Z,1.05
2023-04-28T01:03:40.507Z,1.17
2023-04-28T01:06:09.751Z,0.93
2023-04-28T01:08:39.140Z,0.93
2023-04-28T01:11:14.200Z,1.45
2023-04-28T01:14:00.251Z,1.52
2023-04-28T01:16:30.251Z,2.40
2023-04-28T01:18:58.562Z,1.83
2023-04-28T01:21:35.314Z,1.80
2023-04-28T01:24:12.371Z,1.50
2023-04-28T01:26:40.169Z,1.83
2023-04-28T01:29:07.344Z,1.65
2023-04-28T01:31:34.600Z,2.50
2023-04-28T01:34:01.782Z,2.72
2023-04-28T01:36:29.493Z,2.92
2023-04-28T01:38:56.603Z,2.83
2023-04-28T01:41:23.778Z,3.60
2023-04-28T01:43:51.023Z,2.42
2023-04-28T01:46:18.793Z,2.97
2023-04-28T01:48:46.082Z,4.05
2023-04-28T01:51:13.434Z,3.22
2023-04-28T01:53:40.580Z,4.45
2023-04-28T01:56:08.130Z,3.83
2023-04-28T01:58:35.650Z,4.60
2023-04-28T02:01:03.621Z,4.78
2023-04-28T02:03:31.442Z,6.75
2023-04-28T02:05:58.920Z,5.75
2023-04-28T02:08:26.198Z,5.43
2023-04-28T02:10:53.388Z,5.97
2023-04-28T02:13:21.632Z,6.93
2023-04-28T02:15:48.901Z,7.97
2023-04-28T02:18:16.255Z,7.22
2023-04-28T02:20:43.438Z,6.30
2023-04-28T02:23:11.020Z,6.30
2023-04-28T02:25:38.186Z,7.85
2023-04-28T02:28:05.353Z,7.13
2023-04-28T02:30:35.099Z,9.13
2023-04-28T02:33:02.294Z,8.90
2023-04-28T02:35:29.524Z,7.72
2023-04-28T02:37:56.679Z,7.15
2023-04-28T02:40:23.840Z,8.90
2023-04-28T02:42:51.012Z,6.63
2023-04-28T02:45:18.194Z,7.20
2023-04-28T02:47:45.292Z,9.02
2023-04-28T02:50:12.435Z,8.23
2023-04-28T02:52:39.569Z,9.27
2023-04-28T02:55:07.132Z,7.72
2023-04-28T02:57:34.331Z,8.07
2023-04-28T03:00:01.894Z,6.63
2023-04-28T03:02:36.587Z,6.50
2023-04-28T03:05:03.995Z,5.65
2023-04-28T03:07:31.222Z,6.88
2023-04-28T03:09:58.327Z,6.13
2023-04-28T03:12:25.504Z,6.90
2023-04-28T03:14:52.577Z,7.28
2023-04-28T03:17:19.750Z,7.35
2023-04-28T03:19:46.902Z,6.20
2023-04-28T03:22:13.987Z,5.35
2023-04-28T03:24:41.117Z,5.05
2023-04-28T03:27:08.218Z,8.32
2023-04-28T03:29:37.210Z,4.75
2023-04-28T03:32:04.464Z,7.28
2023-04-28T03:34:31.601Z,6.07
2023-04-28T03:36:59.003Z,6.45
2023-04-28T03:39:29.631Z,6.65
2023-04-28T03:41:56.857Z,6.35
2023-04-28T03:44:42.472Z,6.63
2023-04-28T03:47:09.913Z,6.75
2023-04-28T03:49:38.195Z,9.13
2023-04-28T03:52:05.427Z,7.68
2023-04-28T03:54:32.741Z,6.22
2023-04-28T03:57:02.231Z,6.90
2023-04-28T03:59:32.585Z,7.63
2023-04-28T04:01:59.829Z,6.95
2023-04-28T04:04:27.494Z,6.43
2023-04-28T04:06:55.031Z,4.95
2023-04-28T04:09:22.306Z,4.63
2023-04-28T04:11:49.466Z,3.83
2023-04-28T04:14:17.464Z,3.97
2023-04-28T04:16:44.992Z,3.97
2023-04-28T04:19:12.200Z,3.53
2023-04-28T04:21:41.833Z,2.95
2023-04-28T04:24:08.985Z,3.20
2023-04-28T04:26:36.295Z,1.30
2023-04-28T04:29:14.555Z,1.52
2023-04-28T04:31:41.888Z,1.27
2023-04-28T04:34:09.242Z,1.00
2023-04-28T04:36:36.496Z,0.90
2023-04-28T04:39:03.841Z,0.75
2023-04-28T04:41:30.987Z,0.80
2023-04-28T04:44:14.416Z,0.38
2023-04-28T04:46:47.273Z,0.70
2023-04-28T04:49:15.935Z,0.90
2023-04-28T04:51:43.236Z,1.17
2023-04-28T04:54:10.489Z,1.70
2023-04-28T04:56:39.665Z,0.30
2023-04-28T04:59:07.323Z,0.40
2023-04-28T05:01:43.638Z,0.20
2023-04-28T05:04:11.102Z,0.20
2023-04-28T05:06:38.527Z,0.55
2023-04-28T05:09:06.500Z,0.32
2023-04-28T05:11:33.926Z,0.60
2023-04-28T05:14:01.213Z,2.30
2023-04-28T05:16:29.189Z,0.28
2023-04-28T05:19:02.523Z,1.13
2023-04-28T05:21:29.881Z,0.65
2023-04-28T05:23:57.564Z,0.52
2023-04-28T05:26:24.917Z,0.85
2023-04-28T05:28:55.098Z,0.73
2023-04-28T05:31:22.251Z,0.60
2023-04-28T05:33:49.948Z,1.08
2023-04-28T05:36:17.293Z,0.32
2023-04-28T05:38:46.280Z,0.45
2023-04-28T05:41:13.442Z,0.60
2023-04-28T05:43:41.484Z,0.80
2023-04-28T05:46:18.091Z,0.68
2023-04-28T05:48:49.320Z,0.50
2023-04-28T05:51:16.981Z,0.65
2023-04-28T05:53:44.212Z,0.30
2023-04-28T05:56:11.489Z,3.13
2023-04-28T05:58:39.249Z,0.52
2023-04-28T06:01:06.437Z,1.23
2023-04-28T06:03:33.796Z,1.17
2023-04-28T06:06:01.293Z,0.68
2023-04-28T06:08:28.497Z,0.88
2023-04-28T06:10:55.797Z,0.80
2023-04-28T06:13:22.931Z,0.77
2023-04-28T06:15:50.162Z,0.30
2023-04-28T06:18:17.338Z,1.38
2023-04-28T06:20:44.487Z,0.55
2023-04-28T06:23:12.048Z,1.10
2023-04-28T06:25:44.374Z,0.50
2023-04-28T06:28:13.454Z,0.70
2023-04-28T06:30:41.076Z,0.40
2023-04-28T06:33:08.287Z,0.40
2023-04-28T06:35:36.569Z,0.85
2023-04-28T06:38:04.811Z,0.20
2023-04-28T06:40:32.131Z,0.47
2023-04-28T06:43:01.383Z,0.20
2023-04-28T06:45:36.423Z,0.20
2023-04-28T06:48:03.898Z,0.30
2023-04-28T06:50:31.261Z,0.60
2023-04-28T06:52:58.983Z,1.33
2023-04-28T06:55:29.850Z,0.37
2023-04-28T06:57:58.886Z,1.08
2023-04-28T07:00:26.414Z,0.47
2023-04-28T07:02:53.824Z,0.47
2023-04-28T07:05:21.438Z,0.68
2023-04-28T07:07:48.679Z,0.70
2023-04-28T07:10:16.215Z,0.63
2023-04-28T07:12:43.440Z,0.85
2023-04-28T07:15:11.139Z,1.92
2023-04-28T07:17:38.612Z,1.52
2023-04-28T07:20:07.273Z,0.88
2023-04-28T07:22:34.393Z,0.80
2023-04-28T07:25:01.486Z,0.60
2023-04-28T07:27:28.762Z,0.80
2023-04-28T07:29:56.045Z,0.85
2023-04-28T07:32:24.276Z,1.40
2023-04-28T07:34:51.457Z,0.55
2023-04-28T07:37:18.766Z,0.68
2023-04-28T07:39:46.572Z,0.88
2023-04-28T07:42:13.724Z,0.98
2023-04-28T07:44:40.930Z,0.70
2023-04-28T07:47:08.727Z,0.90
2023-04-28T07:49:36.080Z,2.55
2023-04-28T07:52:03.239Z,1.23
2023-04-28T07:54:30.601Z,1.23
2023-04-28T07:57:01.126Z,0.70
2023-04-28T07:59:28.253Z,1.63
2023-04-28T08:01:55.684Z,1.75
2023-04-28T08:04:23.226Z,1.02
2023-04-28T08:06:50.939Z,3.00
2023-04-28T08:09:18.320Z,1.08
2023-04-28T08:11:45.988Z,0.60
2023-04-28T08:14:14.212Z,1.35
2023-04-28T08:16:41.707Z,1.15
2023-04-28T08:19:09.159Z,0.30
2023-04-28T08:21:36.447Z,0.75
2023-04-28T08:24:03.734Z,0.20
2023-04-28T08:26:31.601Z,0.30
2023-04-28T08:28:58.737Z,0.52
2023-04-28T08:31:26.078Z,0.98
2023-04-28T08:33:54.410Z,1.17
2023-04-28T08:36:25.322Z,0.30
2023-04-28T08:38:52.905Z,0.30
2023-04-28T08:41:20.150Z,0.63
2023-04-28T08:43:47.355Z,0.40
2023-04-28T08:46:16.310Z,0.30
2023-04-28T08:48:48.956Z,0.25
2023-04-28T08:51:20.624Z,0.47
2023-04-28T08:56:27.541Z,0.45
2023-04-28T08:58:55.968Z,1.42
2023-04-28T09:01:23.951Z,0.70
2023-04-28T09:03:54.146Z,0.20
2023-04-28T09:06:22.231Z,0.20
2023-04-28T09:08:49.699Z,0.30
2023-04-28T09:11:16.914Z,0.90
2023-04-28T09:13:44.029Z,0.63
2023-04-28T09:16:11.756Z,0.75
2023-04-28T09:18:38.984Z,2.63
2023-04-28T09:21:07.954Z,0.88
2023-04-28T09:23:47.752Z,0.57
2023-04-28T09:26:15.107Z,0.90
2023-04-28T09:28:42.467Z,2.15
2023-04-28T09:31:24.201Z,0.50
2023-04-28T09:34:00.905Z,0.75
2023-04-28T09:36:32.875Z,0.32
2023-04-28T09:39:01.211Z,0.93
2023-04-28T09:41:42.365Z,0.43
2023-04-28T09:44:15.539Z,1.10
2023-04-28T09:46:44.820Z,0.25
2023-04-28T09:49:13.327Z,0.60
2023-04-28T09:51:40.842Z,0.25
2023-04-28T09:54:08.128Z,0.90
2023-04-28T09:56:40.783Z,1.38
2023-04-28T09:59:08.288Z,0.30
2023-04-28T10:01:41.634Z,2.25
2023-04-28T10:04:12.109Z,0.57
2023-04-28T10:06:40.098Z,0.20
2023-04-28T10:09:08.494Z,1.05
2023-04-28T10:11:37.310Z,0.52
2023-04-28T10:14:04.545Z,2.30
2023-04-28T10:16:35.209Z,0.47
2023-04-28T10:19:04.065Z,0.57
2023-04-28T10:21:35.902Z,1.95
2023-04-28T10:24:18.412Z,2.25
2023-04-28T10:29:34.648Z,1.88
2023-04-28T10:32:18.095Z,0.40
2023-04-28T10:34:45.861Z,1.88
2023-04-28T10:37:15.064Z,0.40
2023-04-28T10:40:20.884Z,0.52
2023-04-28T10:42:56.790Z,0.50
2023-04-28T10:45:56.119Z,1.95
2023-04-28T10:48:46.621Z,0.68
2023-04-28T10:51:16.912Z,1.77
2023-04-28T10:53:47.610Z,0.57
2023-04-28T10:56:26.918Z,0.32
2023-04-28T10:58:58.209Z,0.30
2023-04-28T11:01:26.912Z,0.85
2023-04-28T11:03:59.083Z,0.95
2023-04-28T11:09:48.327Z,1.73
2023-04-28T11:12:16.107Z,0.63
2023-04-28T11:14:43.366Z,2.08
2023-04-28T11:17:13.975Z,0.65
2023-04-28T11:19:43.216Z,0.55
2023-04-28T11:22:19.999Z,0.80
2023-04-28T11:25:03.854Z,0.85
2023-04-28T11:27:33.991Z,2.38
2023-04-28T11:30:05.281Z,0.75
2023-04-28T11:32:35.276Z,0.70
2023-04-28T11:35:04.790Z,1.20
2023-04-28T11:37:32.297Z,0.50
2023-04-28T11:40:09.887Z,0.52
2023-04-28T11:42:37.191Z,0.77
2023-04-28T11:45:04.856Z,1.25
2023-04-28T11:47:33.851Z,1.35
2023-04-28T11:50:02.110Z,0.50
2023-04-28T11:52:29.533Z,0.60
2023-04-28T11:55:00.274Z,0.50
2023-04-28T11:57:28.258Z,0.68
2023-04-28T12:00:19.540Z,0.77
2023-04-28T12:02:47.718Z,0.73
2023-04-28T12:05:15.112Z,1.02
2023-04-28T12:07:44.259Z,0.68
2023-04-28T12:10:16.942Z,1.00
2023-04-28T12:12:52.036Z,1.20
2023-04-28T12:15:21.885Z,1.83
2023-04-28T12:17:51.146Z,1.20
2023-04-28T12:20:36.720Z,1.60
2023-04-28T12:23:03.949Z,1.17
2023-04-28T12:25:31.205Z,0.80
2023-04-28T12:28:03.243Z,0.70
2023-04-28T12:30:32.266Z,3.33
2023-04-28T12:33:00.026Z,1.88
2023-04-28T12:35:29.030Z,0.73
2023-04-28T12:37:58.715Z,2.45
2023-04-28T12:40:26.258Z,0.95
2023-04-28T12:42:54.734Z,1.50
2023-04-28T12:45:21.873Z,1.23
2023-04-28T12:47:49.080Z,1.70
2023-04-28T12:50:16.338Z,1.48
2023-04-28T12:52:43.506Z,2.63
2023-04-28T12:55:11.145Z,3.45
2023-04-28T12:57:39.555Z,3.47
2023-04-28T13:00:08.583Z,2.25
2023-04-28T13:02:36.466Z,1.15
2023-04-28T13:05:03.878Z,1.67
2023-04-28T13:07:31.863Z,2.65
2023-04-28T13:09:59.814Z,2.17
2023-04-28T13:12:26.950Z,1.08
2023-04-28T13:14:54.168Z,1.10
2023-04-28T13:17:21.504Z,1.10
2023-04-28T13:19:48.830Z,3.65
2023-04-28T13:22:16.240Z,1.10
2023-04-28T13:24:44.017Z,1.52
2023-04-28T13:27:11.476Z,0.88
2023-04-28T13:29:38.674Z,1.42
2023-04-28T13:32:06.420Z,0.95
2023-04-28T13:34:33.915Z,1.20
2023-04-28T13:37:01.281Z,0.98
2023-04-28T13:39:28.418Z,0.93
2023-04-28T13:41:55.626Z,2.25
2023-04-28T13:44:22.842Z,1.15
2023-04-28T13:46:50.133Z,1.40
2023-04-28T13:49:17.413Z,0.90
2023-04-28T13:51:45.799Z,0.77
2023-04-28T13:54:12.964Z,0.90
2023-04-28T13:56:40.171Z,1.00
2023-04-28T13:59:07.524Z,0.65
2023-04-28T14:01:34.833Z,3.50
2023-04-28T14:04:02.404Z,1.10
2023-04-28T14:06:29.751Z,0.75
2023-04-28T14:08:57.134Z,0.57
2023-04-28T14:11:24.433Z,0.68
2023-04-28T14:13:51.730Z,0.85
2023-04-28T14:16:18.989Z,2.92
2023-04-28T14:18:46.326Z,1.13
2023-04-28T14:21:13.482Z,1.02
2023-04-28T14:23:40.803Z,0.90
2023-04-28T14:26:08.073Z,0.60
2023-04-28T14:28:35.364Z,1.75
2023-04-28T14:31:09.049Z,1.73
2023-04-28T14:33:36.977Z,0.75
2023-04-28T14:36:05.125Z,0.50
2023-04-28T14:38:32.540Z,1.05
2023-04-28T14:41:00.260Z,1.40
2023-04-28T14:43:28.290Z,1.38
2023-04-28T14:45:55.793Z,0.50
2023-04-28T14:48:23.064Z,1.83
2023-04-28T14:50:51.426Z,1.27
2023-04-28T14:53:18.841Z,0.90
2023-04-28T14:55:46.025Z,2.28
2023-04-28T14:58:13.182Z,0.30
2023-04-28T15:00:40.695Z,1.20
2023-04-28T15:03:10.916Z,4.00
2023-04-28T15:05:45.951Z,1.30
2023-04-28T15:08:15.711Z,0.95
2023-04-28T15:10:52.884Z,0.93
2023-04-28T15:13:20.580Z,0.98
2023-04-28T15:15:55.417Z,1.08
2023-04-28T15:18:31.708Z,1.17
2023-04-28T15:21:03.022Z,1.30
2023-04-28T15:23:31.731Z,3.25
2023-04-28T15:26:02.045Z,1.10
2023-04-28T15:28:33.425Z,1.15
2023-04-28T15:31:08.292Z,0.93
2023-04-28T15:33:35.838Z,0.85
2023-04-28T15:36:16.980Z,1.50
2023-04-28T15:38:52.186Z,0.60
2023-04-28T15:41:28.009Z,1.20
2023-04-28T15:43:58.008Z,1.40
2023-04-28T15:46:29.255Z,1.70
2023-04-28T15:49:05.116Z,0.93
2023-04-28T15:51:35.711Z,1.15
2023-04-28T15:54:06.471Z,2.33
2023-04-28T15:56:34.474Z,3.97
2023-04-28T15:59:04.989Z,1.73
2023-04-28T16:01:36.306Z,0.80
2023-04-28T16:04:06.731Z,1.80
2023-04-28T16:06:38.201Z,1.77
2023-04-28T16:09:08.671Z,1.58
2023-04-28T16:11:35.871Z,1.40
2023-04-28T16:14:03.230Z,3.15
2023-04-28T16:16:30.731Z,2.00
2023-04-28T16:18:58.707Z,1.30
2023-04-28T16:21:25.858Z,1.38
2023-04-28T16:23:53.248Z,1.45
2023-04-28T16:26:20.702Z,1.05
2023-04-28T16:28:48.016Z,2.50
2023-04-28T16:31:15.220Z,0.70
2023-04-28T16:33:42.665Z,1.70
2023-04-28T16:36:09.834Z,2.60
2023-04-28T16:38:36.967Z,2.80
2023-04-28T16:41:04.374Z,1.48
2023-04-28T16:43:32.806Z,1.48
2023-04-28T16:46:00.292Z,1.20
2023-04-28T16:48:28.133Z,1.40
2023-04-28T16:50:55.291Z,1.30
2023-04-28T16:53:22.815Z,1.50
2023-04-28T16:55:49.908Z,2.30
2023-04-28T16:58:17.175Z,1.52
2023-04-28T17:00:44.351Z,2.33
2023-04-28T17:03:11.784Z,2.05
2023-04-28T17:05:38.997Z,3.33
2023-04-28T17:08:06.068Z,2.30
2023-04-28T17:10:33.396Z,3.10
2023-04-28T17:13:00.570Z,2.28
2023-04-28T17:15:27.735Z,3.05
2023-04-28T17:17:55.801Z,4.68
2023-04-28T17:20:23.393Z,3.42
2023-04-28T17:22:50.494Z,3.83
2023-04-28T17:25:17.646Z,2.20
2023-04-28T17:27:44.865Z,2.03
2023-04-28T17:30:13.272Z,1.98
2023-04-28T17:32:40.905Z,2.80
2023-04-28T17:35:08.975Z,2.67
2023-04-28T17:37:39.271Z,2.67
2023-04-28T17:40:07.094Z,2.88
2023-04-28T17:42:34.669Z,3.15
2023-04-28T17:45:01.974Z,3.33
2023-04-28T17:47:29.091Z,3.85
2023-04-28T17:49:56.824Z,3.72
2023-04-28T17:52:23.980Z,3.88
2023-04-28T17:54:51.628Z,5.60
2023-04-28T17:57:18.990Z,4.15
2023-04-28T17:59:50.139Z,4.63
2023-04-28T18:02:18.677Z,4.85
2023-04-28T18:04:46.105Z,4.50
2023-04-28T18:07:13.321Z,4.80
2023-04-28T18:09:40.505Z,4.85
2023-04-28T18:12:07.688Z,4.63
2023-04-28T18:14:35.018Z,5.07
2023-04-28T18:17:02.137Z,5.28
2023-04-28T18:19:30.447Z,4.75
2023-04-28T18:21:58.185Z,5.43
2023-04-28T18:24:25.325Z,5.25
2023-04-28T18:26:52.548Z,5.60
2023-04-28T18:29:20.456Z,6.40
2023-04-28T18:31:47.587Z,6.00
2023-04-28T18:34:14.706Z,7.63
2023-04-28T18:36:41.853Z,7.88
2023-04-28T18:39:10.001Z,6.50
2023-04-28T18:41:38.892Z,7.57
2023-04-28T18:44:06.080Z,8.05
2023-04-28T18:46:33.760Z,9.05
2023-04-28T18:49:03.065Z,8.48
2023-04-28T18:51:30.165Z,8.00
2023-04-28T18:53:57.308Z,10.18
2023-04-28T18:56:24.538Z,9.75
2023-04-28T18:58:51.849Z,11.70
2023-04-28T19:01:19.161Z,11.30
2023-04-28T19:03:46.639Z,10.40
2023-04-28T19:06:14.641Z,10.77
2023-04-28T19:08:42.877Z,11.38
2023-04-28T19:11:10.596Z,15.45
2023-04-28T19:13:38.178Z,11.13
2023-04-28T19:16:05.648Z,11.27
2023-04-28T19:18:33.306Z,21.27
2023-04-28T19:21:04.074Z,14.45
2023-04-28T19:23:32.743Z,14.50
2023-04-28T19:26:00.561Z,12.45
2023-04-28T19:28:28.936Z,13.25
2023-04-28T19:30:57.863Z,13.43
2023-04-28T19:33:27.942Z,14.02
2023-04-28T19:35:55.494Z,12.20
2023-04-28T19:38:23.375Z,11.55
2023-04-28T19:40:51.153Z,12.07
2023-04-28T19:43:18.348Z,14.07
2023-04-28T19:45:46.676Z,12.48
2023-04-28T19:48:14.531Z,11.20
2023-04-28T19:50:42.258Z,9.45
2023-04-28T19:53:10.100Z,12.23
2023-04-28T19:55:37.252Z,13.50
2023-04-28T19:58:06.212Z,15.88
2023-04-28T20:00:33.358Z,14.77
2023-04-28T20:03:00.697Z,11.88
2023-04-28T20:05:28.976Z,16.13
2023-04-28T20:07:56.606Z,10.77
2023-04-28T20:10:24.157Z,19.10
2023-04-28T20:12:51.374Z,25.13
2023-04-28T20:15:18.772Z,17.40
2023-04-28T20:17:46.335Z,21.13
2023-04-28T20:20:13.594Z,18.13
2023-04-28T20:22:43.514Z,18.30
2023-04-28T20:25:10.966Z,17.00
2023-04-28T20:27:38.215Z,12.93
2023-04-28T20:30:06.101Z,15.70
2023-04-28T20:32:33.867Z,14.32
2023-04-28T20:35:02.830Z,15.13
2023-04-28T20:37:32.200Z,15.15
2023-04-28T20:39:59.284Z,16.42
2023-04-28T20:42:27.391Z,15.38
2023-04-28T20:44:54.508Z,16.30
2023-04-28T20:47:21.846Z,12.77
2023-04-28T20:49:49.308Z,13.20
2023-04-28T20:52:16.722Z,14.45
2023-04-28T20:54:43.930Z,12.82
2023-04-28T20:57:11.319Z,14.13
2023-04-28T20:59:38.533Z,15.23
2023-04-28T21:02:05.873Z,13.95
2023-04-28T21:04:33.004Z,12.95
2023-04-28T21:07:00.431Z,12.25
2023-04-28T21:09:27.661Z,15.63
2023-04-28T21:11:55.230Z,17.23
2023-04-28T21:14:22.527Z,13.27
2023-04-28T21:16:49.882Z,13.35
2023-04-28T21:19:17.496Z,13.75
2023-04-28T21:21:45.033Z,14.30
2023-04-28T21:24:12.698Z,13.20
2023-04-28T21:26:40.770Z,11.15
2023-04-28T21:29:09.352Z,12.13
2023-04-28T21:31:37.339Z,9.98
2023-04-28T21:34:04.588Z,10.70
2023-04-28T21:36:32.553Z,13.75
2023-04-28T21:38:59.749Z,14.02
2023-04-28T21:41:27.301Z,11.10
2023-04-28T21:43:54.682Z,13.65
2023-04-28T21:46:21.997Z,10.80
2023-04-28T21:48:49.202Z,9.55
2023-04-28T21:51:16.994Z,10.70
2023-04-28T21:53:44.306Z,11.52
2023-04-28T21:56:11.855Z,10.00
2023-04-28T21:58:39.331Z,11.73
2023-04-28T22:01:06.612Z,12.10
2023-04-28T22:03:37.328Z,14.15
2023-04-28T22:06:04.773Z,11.25
2023-04-28T22:08:32.079Z,12.30
2023-04-28T22:11:00.509Z,11.48
2023-04-28T22:13:27.798Z,15.77
2023-04-28T22:15:56.203Z,11.73
2023-04-28T22:18:23.405Z,13.00
2023-04-28T22:20:50.937Z,11.77
2023-04-28T22:23:18.134Z,12.82
2023-04-28T22:25:45.270Z,13.52
2023-04-28T22:28:13.958Z,12.85
2023-04-28T22:30:41.479Z,13.75
2023-04-28T22:33:08.851Z,12.98
2023-04-28T22:35:36.135Z,13.85
2023-04-28T22:38:03.336Z,14.07
2023-04-28T22:40:30.526Z,10.98
2023-04-28T22:42:57.740Z,19.30
2023-04-28T22:45:25.076Z,15.40
2023-04-28T22:47:52.313Z,13.65
2023-04-28T22:50:20.151Z,15.07
2023-04-28T22:52:47.847Z,13.80
2023-04-28T22:55:15.206Z,12.05
2023-04-28T22:57:42.493Z,14.13
2023-04-28T23:00:10.511Z,14.70
2023-04-28T23:02:38.048Z,18.70
2023-04-28T23:05:05.782Z,14.93
2023-04-28T23:07:33.015Z,15.02
2023-04-28T23:10:00.224Z,16.60
2023-04-28T23:12:27.365Z,14.40
2023-04-28T23:14:54.618Z,11.35
2023-04-28T23:17:21.851Z,13.98
2023-04-28T23:19:49.367Z,18.25
2023-04-28T23:22:16.661Z,13.75
2023-04-28T23:24:44.028Z,11.77
2023-04-28T23:27:11.177Z,14.38
2023-04-28T23:29:38.384Z,12.13
2023-04-28T23:32:05.888Z,12.50
2023-04-28T23:34:33.096Z,13.82
2023-04-28T23:37:00.187Z,13.93
2023-04-28T23:39:30.117Z,15.30
2023-04-28T23:41:58.684Z,12.15
2023-04-28T23:44:25.931Z,13.40
2023-04-28T23:46:54.815Z,13.52
2023-04-28T23:49:23.908Z,13.63
2023-04-28T23:51:51.049Z,13.55
2023-04-28T23:54:18.251Z,15.63
2023-04-28T23:56:45.398Z,13.30
2023-04-28T23:59:12.600Z,14.55
